International Virtual Aviation Organisation

Eastern Europe and Northern Asia MCD

 
USHH 110300Z 14005MPS 9999 -SHRA SCT003CB 02/02 Q1030 R06/290050 TEMPO 1000 SHRA BR BKN001 OVC011CB
QNH:(hPa/inHg/mmHg)1030 / 30.42 / 773
QFE:(hPa/inHg/mmHg)1025 / 30.26 / 769
Temperature2
Dew Point2
Visibility1000
WeatherLight Showers Rain;Showers Rain;Mist
Cloud CoverSCT (300);
BKN (100);
OVC (1100);
Transition Height800 m./2800 ft.
Transition LevelFL40
SQUAWK